Time;durP1;ratioP1;P1;durP2;ratioP2;P2;SDS_P1;SDS_P2;PMS_P1;PMS_P2;Temp;Humidity;BMP_temperature;BMP_pressure;BME280_temperature;BME280_humidity;BME280_pressure;Samples;Min_cycle;Max_cycle;Signal;HPM_P1;HPM_P2
2022/07/12 00:01:21;;;;;;;11.63;10.97;;;;;;;;;;4967849;28;20446;-86
2022/07/12 00:03:47;;;;;;;10.70;10.20;;;;;;;;;;4972881;28;20457;-86
2022/07/12 00:06:13;;;;;;;9.20;8.77;;;;;;;;;;4967872;28;20533;-85
2022/07/12 00:08:39;;;;;;;9.10;8.60;;;;;;;;;;4976275;28;20894;-86
2022/07/12 00:11:06;;;;;;;9.87;9.27;;;;;;;;;;4971178;28;20440;-86
2022/07/12 00:13:31;;;;;;;11.13;10.50;;;;;;;;;;4972366;28;20436;-86
2022/07/12 00:15:58;;;;;;;9.03;8.53;;;;;;;;;;4978168;28;20465;-86
2022/07/12 00:18:24;;;;;;;9.13;8.43;;;;;;;;;;4971809;28;20482;-85
2022/07/12 00:20:50;;;;;;;7.90;7.60;;;;;;;;;;4974517;28;20501;-86
2022/07/12 00:23:17;;;;;;;8.17;7.87;;;;;;;;;;4982950;28;20443;-86
2022/07/12 00:25:43;;;;;;;7.67;7.37;;;;;;;;;;4975996;28;20564;-86
2022/07/12 00:28:09;;;;;;;7.00;6.77;;;;;;;;;;4976282;28;20433;-86
2022/07/12 00:30:35;;;;;;;7.93;7.63;;;;;;;;;;4976899;28;20841;-86
2022/07/12 00:33:01;;;;;;;8.67;8.27;;;;;;;;;;4963254;28;20427;-85
2022/07/12 00:35:27;;;;;;;6.60;6.50;;;;;;;;;;4971087;28;20539;-85
2022/07/12 00:37:53;;;;;;;7.33;7.03;;;;;;;;;;4952790;28;20439;-84
2022/07/12 00:40:19;;;;;;;7.00;6.70;;;;;;;;;;4979370;28;20443;-85
2022/07/12 00:42:45;;;;;;;7.30;6.93;;;;;;;;;;4957765;28;20561;-85
2022/07/12 00:45:11;;;;;;;6.63;6.33;;;;;;;;;;4974334;28;20492;-85
2022/07/12 00:47:40;;;;;;;6.50;6.30;;;;;;;;;;4954600;28;20938;-85
2022/07/12 00:50:07;;;;;;;6.60;6.40;;;;;;;;;;4979756;28;20433;-85
2022/07/12 00:52:33;;;;;;;6.43;6.23;;;;;;;;;;4949769;28;20435;-86
2022/07/12 00:54:59;;;;;;;6.87;6.43;;;;;;;;;;4957535;28;20862;-86
2022/07/12 00:57:26;;;;;;;7.07;6.80;;;;;;;;;;4947891;28;20446;-86
2022/07/12 00:59:52;;;;;;;6.60;6.30;;;;;;;;;;4955559;28;20531;-86
2022/07/12 01:02:18;;;;;;;9.20;8.80;;;;;;;;;;4959581;28;20414;-85
2022/07/12 01:04:45;;;;;;;7.33;7.10;;;;;;;;;;4945034;28;20442;-86
2022/07/12 01:07:11;;;;;;;7.47;7.17;;;;;;;;;;4960715;28;20485;-85
2022/07/12 01:09:38;;;;;;;6.97;6.73;;;;;;;;;;4961846;28;20441;-85
2022/07/12 01:12:05;;;;;;;7.93;7.70;;;;;;;;;;4954105;28;20942;-86
2022/07/12 01:14:31;;;;;;;6.40;6.13;;;;;;;;;;4957926;28;20445;-85
2022/07/12 01:16:58;;;;;;;7.13;6.70;;;;;;;;;;4952520;28;20497;-85
2022/07/12 01:19:24;;;;;;;6.27;6.17;;;;;;;;;;4970154;28;20434;-85
2022/07/12 01:21:51;;;;;;;6.10;5.80;;;;;;;;;;4953661;28;20454;-85
2022/07/12 01:24:19;;;;;;;6.20;6.00;;;;;;;;;;4974980;28;20883;-85
2022/07/12 01:26:46;;;;;;;6.40;6.20;;;;;;;;;;4956370;28;20529;-89
2022/07/12 01:29:12;;;;;;;6.33;6.13;;;;;;;;;;4983037;28;20451;-94
2022/07/12 01:31:38;;;;;;;6.43;6.33;;;;;;;;;;4958232;28;20959;-87
2022/07/12 01:34:06;;;;;;;6.03;5.77;;;;;;;;;;4983630;28;20425;-85
2022/07/12 01:36:32;;;;;;;5.60;5.50;;;;;;;;;;4966348;28;20477;-85
2022/07/12 01:38:58;;;;;;;5.90;5.63;;;;;;;;;;4974865;28;20513;-86
2022/07/12 01:41:25;;;;;;;5.40;5.30;;;;;;;;;;4975692;28;20440;-87
2022/07/12 01:43:51;;;;;;;6.47;6.20;;;;;;;;;;4968771;28;20456;-85
2022/07/12 01:46:17;;;;;;;6.13;5.93;;;;;;;;;;4957010;28;20446;-86
2022/07/12 01:48:43;;;;;;;6.20;6.00;;;;;;;;;;4965549;28;20451;-86
2022/07/12 01:51:09;;;;;;;6.00;5.70;;;;;;;;;;4965630;28;20437;-86
2022/07/12 01:53:36;;;;;;;6.10;5.90;;;;;;;;;;4984022;28;20440;-86
2022/07/12 01:56:05;;;;;;;5.33;5.23;;;;;;;;;;4950752;28;20545;-86
2022/07/12 01:58:31;;;;;;;6.00;5.80;;;;;;;;;;4969253;28;20943;-86
2022/07/12 02:00:58;;;;;;;5.87;5.67;;;;;;;;;;4959460;28;20449;-86
2022/07/12 02:03:24;;;;;;;5.97;5.77;;;;;;;;;;4983253;28;20445;-86
2022/07/12 02:05:50;;;;;;;5.50;5.40;;;;;;;;;;4961136;28;20499;-86
2022/07/12 02:08:16;;;;;;;6.33;6.00;;;;;;;;;;4963185;28;20504;-87
2022/07/12 02:10:43;;;;;;;5.90;5.80;;;;;;;;;;4955655;28;20487;-86
2022/07/12 02:13:09;;;;;;;5.83;5.63;;;;;;;;;;4979264;28;20596;-86
2022/07/12 02:15:35;;;;;;;6.03;5.83;;;;;;;;;;4953485;28;21007;-86
2022/07/12 02:18:03;;;;;;;6.27;6.07;;;;;;;;;;4962660;28;20457;-86
2022/07/12 02:20:29;;;;;;;6.80;6.60;;;;;;;;;;4953497;28;20485;-85
2022/07/12 02:22:55;;;;;;;7.50;7.20;;;;;;;;;;4959610;28;20428;-86
2022/07/12 02:25:21;;;;;;;7.20;6.90;;;;;;;;;;4962120;28;21028;-85
2022/07/12 02:27:47;;;;;;;6.90;6.30;;;;;;;;;;4951877;28;20484;-85
2022/07/12 02:30:14;;;;;;;7.60;7.30;;;;;;;;;;4955489;28;20552;-85
2022/07/12 02:32:40;;;;;;;5.83;5.73;;;;;;;;;;4963258;28;20444;-85
2022/07/12 02:35:06;;;;;;;7.03;6.83;;;;;;;;;;4956065;28;20437;-85
2022/07/12 02:37:32;;;;;;;7.37;6.97;;;;;;;;;;4962527;28;20425;-86
2022/07/12 02:42:43;;;;;;;7.83;7.53;;;;;;;;;;4968489;28;21013;-86
2022/07/12 02:45:09;;;;;;;10.40;9.70;;;;;;;;;;4977787;28;21078;-85
2022/07/12 02:47:39;;;;;;;10.77;10.00;;;;;;;;;;4950670;28;20446;-85
2022/07/12 02:50:06;;;;;;;7.30;7.10;;;;;;;;;;4973603;28;20444;-86
2022/07/12 02:52:32;;;;;;;6.20;6.00;;;;;;;;;;4964537;28;20507;-86
2022/07/12 02:54:58;;;;;;;5.70;5.50;;;;;;;;;;4962340;28;20495;-86
2022/07/12 02:57:24;;;;;;;5.50;5.17;;;;;;;;;;4964214;28;20429;-84
2022/07/12 02:59:50;;;;;;;11.93;11.13;;;;;;;;;;4964761;28;20441;-85
2022/07/12 03:02:16;;;;;;;11.50;10.63;;;;;;;;;;4962780;28;21034;-86
2022/07/12 03:04:42;;;;;;;7.87;7.40;;;;;;;;;;4950466;28;20506;-86
2022/07/12 03:07:08;;;;;;;6.50;6.40;;;;;;;;;;4976277;28;20464;-86
2022/07/12 03:09:35;;;;;;;6.90;6.60;;;;;;;;;;4961312;28;20445;-86
2022/07/12 03:12:01;;;;;;;7.40;6.90;;;;;;;;;;4957245;28;20409;-86
2022/07/12 03:14:27;;;;;;;6.83;6.63;;;;;;;;;;4980915;28;20449;-86
2022/07/12 03:16:53;;;;;;;7.73;7.33;;;;;;;;;;4954575;28;20473;-85
2022/07/12 03:19:19;;;;;;;8.80;8.40;;;;;;;;;;4962571;28;20855;-86
2022/07/12 03:21:45;;;;;;;10.80;10.17;;;;;;;;;;4954926;28;20430;-86
2022/07/12 03:24:11;;;;;;;12.63;11.87;;;;;;;;;;4967944;28;20428;-86
2022/07/12 03:26:37;;;;;;;12.10;11.40;;;;;;;;;;4960975;28;20457;-86
2022/07/12 03:29:04;;;;;;;12.33;11.53;;;;;;;;;;4980361;28;20441;-87
2022/07/12 03:31:30;;;;;;;9.53;8.93;;;;;;;;;;4951769;28;20406;-86
2022/07/12 03:33:56;;;;;;;8.70;8.30;;;;;;;;;;4979882;28;20981;-92
2022/07/12 03:36:22;;;;;;;8.07;7.77;;;;;;;;;;5004261;28;20467;-92
2022/07/12 03:38:48;;;;;;;7.77;6.90;;;;;;;;;;4966271;28;20485;-91
2022/07/12 03:41:14;;;;;;;7.53;7.30;;;;;;;;;;4983821;28;20421;-91
2022/07/12 03:43:40;;;;;;;7.80;7.40;;;;;;;;;;4984352;28;20548;-91
2022/07/12 03:46:06;;;;;;;6.57;6.17;;;;;;;;;;4984198;28;20447;-90
2022/07/12 03:48:32;;;;;;;7.60;7.30;;;;;;;;;;4987743;28;20433;-91
2022/07/12 03:50:58;;;;;;;8.10;7.50;;;;;;;;;;4980399;28;20493;-91
2022/07/12 03:53:24;;;;;;;7.70;7.30;;;;;;;;;;4977537;28;20441;-89
2022/07/12 03:55:50;;;;;;;7.87;7.47;;;;;;;;;;4992446;28;20489;-90
2022/07/12 03:58:16;;;;;;;6.77;6.47;;;;;;;;;;4992301;28;20478;-91
2022/07/12 04:00:42;;;;;;;6.60;6.30;;;;;;;;;;4976794;28;20426;-90
2022/07/12 04:03:10;;;;;;;5.97;5.70;;;;;;;;;;4993238;28;20440;-91
2022/07/12 04:05:36;;;;;;;6.70;6.40;;;;;;;;;;4969682;28;20520;-91
2022/07/12 04:08:02;;;;;;;7.07;6.70;;;;;;;;;;4999119;28;20417;-90
2022/07/12 04:10:28;;;;;;;6.63;6.13;;;;;;;;;;4981997;28;20432;-90
2022/07/12 04:12:54;;;;;;;5.97;5.57;;;;;;;;;;4999292;28;20426;-90
2022/07/12 04:15:20;;;;;;;7.47;6.87;;;;;;;;;;4982272;28;20468;-91
2022/07/12 04:17:46;;;;;;;7.13;6.60;;;;;;;;;;4984773;28;20559;-92
2022/07/12 04:20:12;;;;;;;7.63;7.13;;;;;;;;;;4982476;28;20456;-90
2022/07/12 04:22:38;;;;;;;7.10;6.67;;;;;;;;;;4984383;28;20436;-91
2022/07/12 04:25:06;;;;;;;7.37;6.80;;;;;;;;;;4964763;28;20879;-92
2022/07/12 04:27:32;;;;;;;7.43;7.03;;;;;;;;;;5002840;28;20849;-90
2022/07/12 04:29:58;;;;;;;6.70;6.30;;;;;;;;;;4974821;28;20417;-91
2022/07/12 04:32:24;;;;;;;6.80;6.40;;;;;;;;;;4982717;28;20413;-89
2022/07/12 04:34:50;;;;;;;4.87;4.67;;;;;;;;;;4977682;28;20431;-91
2022/07/12 04:37:16;;;;;;;6.40;5.83;;;;;;;;;;4972991;28;20473;-91
2022/07/12 04:39:42;;;;;;;5.20;5.00;;;;;;;;;;4984073;28;20469;-90
2022/07/12 04:42:08;;;;;;;4.50;4.40;;;;;;;;;;4958925;28;20493;-91
2022/07/12 04:44:34;;;;;;;4.60;4.30;;;;;;;;;;4969038;28;20494;-92
2022/07/12 04:47:00;;;;;;;6.20;5.80;;;;;;;;;;4993568;28;20487;-91
2022/07/12 04:49:26;;;;;;;3.77;3.70;;;;;;;;;;4983825;28;20957;-91
2022/07/12 04:51:52;;;;;;;4.70;4.60;;;;;;;;;;4986433;28;20428;-91
2022/07/12 04:54:18;;;;;;;4.07;3.97;;;;;;;;;;4979282;28;20444;-92
2022/07/12 04:56:44;;;;;;;3.63;3.63;;;;;;;;;;4987587;28;20555;-92
2022/07/12 04:59:10;;;;;;;5.40;4.17;;;;;;;;;;4976711;28;20571;-89
2022/07/12 05:01:36;;;;;;;4.20;3.90;;;;;;;;;;4957505;28;20430;-91
2022/07/12 05:04:02;;;;;;;3.80;3.80;;;;;;;;;;4979678;28;20515;-89
2022/07/12 05:06:28;;;;;;;4.60;4.20;;;;;;;;;;4982659;28;20439;-91
2022/07/12 05:08:54;;;;;;;4.13;4.03;;;;;;;;;;4996919;28;20416;-91
2022/07/12 05:11:20;;;;;;;4.87;4.30;;;;;;;;;;4958522;28;20505;-88
2022/07/12 05:13:46;;;;;;;4.63;4.43;;;;;;;;;;5002776;28;20433;-90
2022/07/12 05:16:12;;;;;;;7.27;6.67;;;;;;;;;;4974092;28;20524;-90
2022/07/12 05:18:41;;;;;;;4.60;4.30;;;;;;;;;;4983816;28;20512;-89
2022/07/12 05:21:07;;;;;;;4.90;4.77;;;;;;;;;;4979985;28;20437;-90
2022/07/12 05:23:34;;;;;;;4.60;4.50;;;;;;;;;;4969635;28;20900;-91
2022/07/12 05:26:00;;;;;;;4.83;4.63;;;;;;;;;;4955078;28;20434;-90
2022/07/12 05:28:26;;;;;;;4.50;4.37;;;;;;;;;;4956178;28;20666;-90
2022/07/12 05:30:52;;;;;;;4.50;4.30;;;;;;;;;;4965333;28;20433;-90
2022/07/12 05:33:18;;;;;;;4.20;4.10;;;;;;;;;;4972266;28;20429;-90
2022/07/12 05:35:43;;;;;;;4.07;3.90;;;;;;;;;;4960383;28;20474;-90
2022/07/12 05:38:10;;;;;;;3.83;3.73;;;;;;;;;;4987293;28;20444;-89
2022/07/12 05:40:36;;;;;;;3.63;3.53;;;;;;;;;;4965933;28;20500;-90
2022/07/12 05:43:02;;;;;;;3.80;3.60;;;;;;;;;;4969936;28;21113;-90
2022/07/12 05:45:28;;;;;;;3.50;3.50;;;;;;;;;;4963516;28;20433;-90
2022/07/12 05:47:54;;;;;;;3.80;3.70;;;;;;;;;;4992894;28;21072;-90
2022/07/12 05:50:20;;;;;;;3.23;3.00;;;;;;;;;;4969723;28;20465;-86
2022/07/12 05:55:31;;;;;;;5.80;3.83;;;;;;;;;;4985688;28;20576;-90
2022/07/12 05:57:57;;;;;;;3.13;3.13;;;;;;;;;;4987311;28;20877;-90
2022/07/12 06:00:23;;;;;;;3.13;3.13;;;;;;;;;;4966297;28;20442;-90
2022/07/12 06:02:49;;;;;;;3.83;3.73;;;;;;;;;;5006618;28;20459;-89
2022/07/12 06:05:15;;;;;;;2.93;2.93;;;;;;;;;;4971030;28;21038;-91
2022/07/12 06:07:41;;;;;;;3.87;3.57;;;;;;;;;;4964323;28;20426;-90
2022/07/12 06:10:07;;;;;;;3.27;3.27;;;;;;;;;;4992389;28;20430;-89
2022/07/12 06:12:33;;;;;;;3.73;3.63;;;;;;;;;;4967142;28;20544;-90
2022/07/12 06:14:59;;;;;;;3.63;3.43;;;;;;;;;;4975905;28;20436;-91
2022/07/12 06:17:25;;;;;;;4.00;3.80;;;;;;;;;;4998167;28;21209;-89
2022/07/12 06:19:52;;;;;;;3.90;3.80;;;;;;;;;;4971905;28;20536;-90
2022/07/12 06:22:18;;;;;;;3.70;3.11;;;;;;;;;;4309175;28;10022394;-91
2022/07/12 06:24:44;;;;;;;3.80;3.50;;;;;;;;;;4961529;28;20185;-90
2022/07/12 06:27:10;;;;;;;3.50;3.50;;;;;;;;;;4961179;28;20461;-91
2022/07/12 06:29:38;;;;;;;3.00;2.90;;;;;;;;;;4972365;28;20417;-89
2022/07/12 06:32:10;;;;;;;3.50;3.40;;;;;;;;;;4985728;28;20464;-90
2022/07/12 06:34:37;;;;;;;4.20;3.60;;;;;;;;;;4997002;28;20413;-90
2022/07/12 06:37:03;;;;;;;3.20;3.10;;;;;;;;;;4969941;28;20964;-89
2022/07/12 06:39:29;;;;;;;3.37;3.27;;;;;;;;;;4960303;28;20436;-92
2022/07/12 06:41:55;;;;;;;3.90;3.80;;;;;;;;;;4975162;28;20475;-91
2022/07/12 06:44:21;;;;;;;2.73;2.63;;;;;;;;;;4969004;28;20437;-88
2022/07/12 06:46:47;;;;;;;2.73;2.63;;;;;;;;;;4962601;28;20470;-91
2022/07/12 06:49:13;;;;;;;3.10;3.10;;;;;;;;;;4965213;28;20529;-90
2022/07/12 06:51:39;;;;;;;2.80;2.70;;;;;;;;;;4968782;28;20438;-89
2022/07/12 06:54:05;;;;;;;3.53;3.43;;;;;;;;;;4973482;28;20476;-91
2022/07/12 06:56:32;;;;;;;3.93;3.63;;;;;;;;;;4973924;28;21028;-90
2022/07/12 06:58:58;;;;;;;3.47;3.27;;;;;;;;;;4970801;28;20548;-90
2022/07/12 07:01:24;;;;;;;3.57;3.27;;;;;;;;;;4966118;28;20429;-91
2022/07/12 07:03:50;;;;;;;3.57;3.40;;;;;;;;;;4972689;28;20442;-90
2022/07/12 07:06:16;;;;;;;3.80;3.60;;;;;;;;;;5003920;28;20436;-91
2022/07/12 07:08:42;;;;;;;3.50;3.30;;;;;;;;;;4966493;28;20512;-89
2022/07/12 07:11:09;;;;;;;3.10;3.10;;;;;;;;;;4999697;28;20425;-91
2022/07/12 07:13:38;;;;;;;3.30;3.30;;;;;;;;;;4959774;28;20464;-91
2022/07/12 07:16:04;;;;;;;3.00;3.00;;;;;;;;;;4977574;28;20497;-90
2022/07/12 07:18:30;;;;;;;3.30;3.17;;;;;;;;;;4967595;28;20441;-89
2022/07/12 07:20:56;;;;;;;3.63;3.60;;;;;;;;;;4981463;28;20432;-91
2022/07/12 07:23:22;;;;;;;4.50;4.30;;;;;;;;;;4968762;28;20733;-90
2022/07/12 07:25:48;;;;;;;3.93;3.83;;;;;;;;;;4983369;28;20468;-92
2022/07/12 07:28:14;;;;;;;4.20;4.10;;;;;;;;;;4970082;28;20437;-92
2022/07/12 07:30:54;;;;;;;4.70;4.60;;;;;;;;;;5133792;27;20547;-86
2022/07/12 07:33:24;;;;;;;5.13;4.83;;;;;;;;;;5132248;27;20450;-88
2022/07/12 07:35:50;;;;;;;4.87;4.50;;;;;;;;;;5137607;27;20528;-88
2022/07/12 07:38:17;;;;;;;4.30;4.20;;;;;;;;;;5145264;27;20430;-89
2022/07/12 07:40:43;;;;;;;4.50;4.20;;;;;;;;;;5135501;27;20434;-87
2022/07/12 07:43:09;;;;;;;4.37;4.27;;;;;;;;;;5135232;27;20433;-88
2022/07/12 07:45:35;;;;;;;4.17;4.07;;;;;;;;;;5127638;27;20935;-88
2022/07/12 07:48:02;;;;;;;4.73;4.53;;;;;;;;;;5133290;27;20438;-87
2022/07/12 07:50:29;;;;;;;4.43;4.30;;;;;;;;;;5133352;27;20503;-90
2022/07/12 07:52:55;;;;;;;3.93;3.83;;;;;;;;;;5132377;27;20482;-87
2022/07/12 07:55:22;;;;;;;4.23;4.10;;;;;;;;;;5142245;27;20421;-87
2022/07/12 07:57:47;;;;;;;3.20;3.20;;;;;;;;;;5138208;27;20513;-85
2022/07/12 08:00:14;;;;;;;3.73;3.63;;;;;;;;;;5127492;27;20466;-87
2022/07/12 08:02:41;;;;;;;3.40;3.30;;;;;;;;;;5129238;27;20445;-88
2022/07/12 08:05:07;;;;;;;3.47;3.37;;;;;;;;;;5111960;27;20435;-89
2022/07/12 08:07:34;;;;;;;4.50;4.20;;;;;;;;;;5120025;27;20795;-88
2022/07/12 08:10:01;;;;;;;5.07;4.77;;;;;;;;;;5108134;27;20475;-88
2022/07/12 08:12:29;;;;;;;3.43;3.33;;;;;;;;;;5125011;27;20432;-88
2022/07/12 08:14:55;;;;;;;3.30;3.23;;;;;;;;;;5111606;27;20438;-88
2022/07/12 08:17:21;;;;;;;3.13;3.03;;;;;;;;;;5110174;28;20435;-88
2022/07/12 08:19:50;;;;;;;3.03;2.70;;;;;;;;;;5123340;27;20438;-88
2022/07/12 08:22:16;;;;;;;3.05;2.95;;;;;;;;;;4754164;27;10000443;-88
2022/07/12 08:24:43;;;;;;;1.87;1.87;;;;;;;;;;5099858;28;21151;-86
2022/07/12 08:27:09;;;;;;;2.20;2.20;;;;;;;;;;5105720;27;20443;-88
2022/07/12 08:29:36;;;;;;;2.63;2.60;;;;;;;;;;5115492;27;20486;-88
2022/07/12 08:32:05;;;;;;;2.60;2.60;;;;;;;;;;5106265;27;20439;-88
2022/07/12 08:34:31;;;;;;;2.20;2.20;;;;;;;;;;5105306;27;20415;-87
2022/07/12 08:36:58;;;;;;;2.20;2.20;;;;;;;;;;5109824;27;20435;-86
2022/07/12 08:39:28;;;;;;;2.37;2.37;;;;;;;;;;5103289;28;21192;-88
2022/07/12 08:41:54;;;;;;;2.20;2.10;;;;;;;;;;5090996;28;20420;-88
2022/07/12 08:44:22;;;;;;;2.07;2.07;;;;;;;;;;5092470;28;20484;-88
2022/07/12 08:46:48;;;;;;;3.00;2.90;;;;;;;;;;5092424;28;20424;-88
2022/07/12 08:49:14;;;;;;;2.13;2.13;;;;;;;;;;5089690;28;20463;-89
2022/07/12 08:51:40;;;;;;;2.47;2.30;;;;;;;;;;5094542;28;20444;-89
2022/07/12 08:54:06;;;;;;;2.00;1.83;;;;;;;;;;5079133;28;21028;-89
2022/07/12 08:56:37;;;;;;;2.20;2.20;;;;;;;;;;5107232;28;20457;-89
2022/07/12 08:59:16;;;;;;;2.57;2.50;;;;;;;;;;5090819;28;20424;-89
2022/07/12 09:01:47;;;;;;;2.30;2.20;;;;;;;;;;5100108;28;21215;-89
2022/07/12 09:04:14;;;;;;;2.07;2.00;;;;;;;;;;5090432;28;20455;-88
2022/07/12 09:06:41;;;;;;;1.60;1.60;;;;;;;;;;5103111;28;20476;-89
2022/07/12 09:09:08;;;;;;;1.87;1.87;;;;;;;;;;5109200;28;20520;-86
2022/07/12 09:11:36;;;;;;;1.70;1.70;;;;;;;;;;5092076;28;20541;-87
2022/07/12 09:14:02;;;;;;;2.13;2.13;;;;;;;;;;5093318;28;20911;-88
2022/07/12 09:16:28;;;;;;;2.13;2.13;;;;;;;;;;5100542;28;20485;-88
2022/07/12 09:19:13;;;;;;;1.60;1.50;;;;;;;;;;5079340;28;20440;-88
2022/07/12 09:21:46;;;;;;;1.50;1.50;;;;;;;;;;5097595;28;21035;-88
2022/07/12 09:24:12;;;;;;;1.93;1.63;;;;;;;;;;5089554;28;20439;-88
2022/07/12 09:26:40;;;;;;;1.63;1.52;;;;;;;;;;4799159;28;10000885;-90
2022/07/12 09:29:26;;;;;;;2.10;2.00;;;;;;;;;;5088573;28;20426;-90
2022/07/12 09:37:24;;;;;;;1.60;1.60;;;;;;;;;;5086120;28;20442;-91
2022/07/12 09:39:51;;;;;;;1.70;1.70;;;;;;;;;;5124374;28;20513;-91
2022/07/12 09:42:23;;;;;;;2.37;1.90;;;;;;;;;;5105410;28;20518;-92
2022/07/12 09:44:54;;;;;;;2.17;2.10;;;;;;;;;;5094095;28;20454;-91
2022/07/12 09:47:22;;;;;;;2.10;2.00;;;;;;;;;;5098896;28;20404;-91
2022/07/12 09:49:52;;;;;;;2.00;2.00;;;;;;;;;;5100768;28;20467;-88
2022/07/12 09:52:22;;;;;;;2.53;2.17;;;;;;;;;;5112841;28;20472;-87
2022/07/12 09:54:51;;;;;;;1.93;1.80;;;;;;;;;;5105558;28;20427;-87
2022/07/12 09:57:20;;;;;;;1.83;1.80;;;;;;;;;;5114767;28;21082;-89
2022/07/12 09:59:53;;;;;;;2.10;2.10;;;;;;;;;;5093108;28;20432;-89
2022/07/12 10:02:25;;;;;;;1.80;1.80;;;;;;;;;;5093602;28;20949;-88
2022/07/12 10:04:55;;;;;;;2.10;2.00;;;;;;;;;;5099801;28;20506;-88
2022/07/12 10:07:25;;;;;;;2.13;2.03;;;;;;;;;;5119932;28;20411;-89
2022/07/12 10:09:54;;;;;;;1.90;1.90;;;;;;;;;;5104188;28;20497;-86
2022/07/12 10:12:23;;;;;;;2.03;2.03;;;;;;;;;;5121130;28;20447;-90
2022/07/12 10:15:02;;;;;;;1.90;1.90;;;;;;;;;;5119515;22;20479;-90
2022/07/12 10:17:34;;;;;;;1.70;1.60;;;;;;;;;;5096509;28;20428;-89
2022/07/12 10:20:16;;;;;;;2.00;2.00;;;;;;;;;;5085929;28;20466;-89
2022/07/12 10:22:43;;;;;;;2.00;1.90;;;;;;;;;;5094700;28;20454;-89
2022/07/12 10:25:27;;;;;;;3.23;3.23;;;;;;;;;;5106048;28;20460;-88
2022/07/12 10:27:58;;;;;;;2.20;2.20;;;;;;;;;;5095276;28;20438;-88
2022/07/12 10:30:26;;;;;;;1.80;1.70;;;;;;;;;;5087148;28;20513;-88
2022/07/12 10:32:56;;;;;;;2.30;2.30;;;;;;;;;;5095667;28;20440;-91
2022/07/12 10:35:24;;;;;;;2.13;2.13;;;;;;;;;;5117336;28;20450;-88
2022/07/12 10:38:12;;;;;;;1.73;1.63;;;;;;;;;;5092988;28;20438;-89
2022/07/12 10:40:48;;;;;;;1.33;1.23;;;;;;;;;;5110189;28;20439;-90
2022/07/12 10:43:21;;;;;;;1.50;1.40;;;;;;;;;;5076811;28;20419;-91
2022/07/12 10:45:48;;;;;;;1.37;1.37;;;;;;;;;;5074069;28;20882;-91
2022/07/12 10:48:14;;;;;;;1.07;1.07;;;;;;;;;;5096351;28;20485;-91
2022/07/12 10:50:43;;;;;;;1.30;1.30;;;;;;;;;;5093644;28;20456;-89
2022/07/12 10:53:26;;;;;;;1.30;1.23;;;;;;;;;;5107143;28;20423;-90
2022/07/12 10:56:06;;;;;;;0.80;0.80;;;;;;;;;;5098171;28;20807;-91
2022/07/12 10:58:48;;;;;;;1.47;1.47;;;;;;;;;;4727897;28;9999714;-92
2022/07/12 11:01:17;;;;;;;3.23;1.60;;;;;;;;;;5108313;28;20174;-92
2022/07/12 11:03:49;;;;;;;1.10;1.10;;;;;;;;;;5110724;28;20980;-93
2022/07/12 11:06:17;;;;;;;0.73;0.73;;;;;;;;;;5106375;28;20403;-90
2022/07/12 11:08:55;;;;;;;2.20;1.30;;;;;;;;;;5104063;28;20441;-90
2022/07/12 11:11:21;;;;;;;0.80;0.80;;;;;;;;;;5111627;27;20517;-90
2022/07/12 11:13:47;;;;;;;1.33;1.33;;;;;;;;;;5121432;27;20485;-89
2022/07/12 11:16:14;;;;;;;1.20;1.20;;;;;;;;;;5114856;27;20466;-89
2022/07/12 11:18:40;;;;;;;1.03;1.03;;;;;;;;;;5116040;27;20585;-89
2022/07/12 11:21:06;;;;;;;2.63;0.90;;;;;;;;;;5100566;27;20522;-89
2022/07/12 11:23:32;;;;;;;1.67;1.60;;;;;;;;;;5122187;27;20453;-87
2022/07/12 11:25:59;;;;;;;1.77;1.77;;;;;;;;;;5100828;28;20431;-92
2022/07/12 11:28:27;;;;;;;1.77;1.67;;;;;;;;;;5111271;28;20494;-90
2022/07/12 11:30:54;;;;;;;1.57;1.57;;;;;;;;;;5112220;28;20982;-90
2022/07/12 11:33:32;;;;;;;3.50;1.70;;;;;;;;;;5110030;28;20453;-91
2022/07/12 11:35:58;;;;;;;1.43;1.43;;;;;;;;;;5113257;28;20440;-90
2022/07/12 11:38:26;;;;;;;2.40;1.23;;;;;;;;;;5138226;28;20811;-89
2022/07/12 11:41:03;;;;;;;1.93;1.93;;;;;;;;;;5131752;28;20395;-89
2022/07/12 11:43:50;;;;;;;1.77;1.67;;;;;;;;;;5127855;28;20487;-91
2022/07/12 11:46:19;;;;;;;1.57;1.57;;;;;;;;;;5105277;28;20411;-91
2022/07/12 11:48:45;;;;;;;2.23;2.03;;;;;;;;;;5102424;28;20506;-90
2022/07/12 11:51:13;;;;;;;1.43;1.43;;;;;;;;;;5114066;28;20426;-91
2022/07/12 11:53:46;;;;;;;1.90;1.30;;;;;;;;;;5127475;28;20459;-89
2022/07/12 11:56:20;;;;;;;1.63;1.53;;;;;;;;;;5119943;28;20504;-91
2022/07/12 11:58:57;;;;;;;1.77;1.77;;;;;;;;;;5120435;28;20476;-91
2022/07/12 12:01:23;;;;;;;2.00;2.00;;;;;;;;;;5137656;28;20835;-90
2022/07/12 12:03:49;;;;;;;2.57;2.50;;;;;;;;;;5097376;28;20443;-91
2022/07/12 12:06:15;;;;;;;2.00;1.90;;;;;;;;;;5101416;28;20442;-90
2022/07/12 12:08:42;;;;;;;2.47;2.37;;;;;;;;;;5107250;28;20451;-88
2022/07/12 12:11:07;;;;;;;1.67;1.57;;;;;;;;;;5108021;28;20420;-89
2022/07/12 12:13:33;;;;;;;1.40;1.40;;;;;;;;;;5118780;28;20446;-91
2022/07/12 12:16:00;;;;;;;1.80;1.70;;;;;;;;;;5118750;28;20971;-90
2022/07/12 12:19:12;;;;;;;1.43;1.20;;;;;;;;;;5117195;28;21140;-88
2022/07/12 12:21:38;;;;;;;1.90;1.90;;;;;;;;;;5102471;27;20416;-91
2022/07/12 12:24:10;;;;;;;1.77;1.77;;;;;;;;;;5117683;27;20783;-89
2022/07/12 12:26:36;;;;;;;2.10;2.00;;;;;;;;;;5122186;27;20426;-88
2022/07/12 12:29:03;;;;;;;2.80;2.80;;;;;;;;;;5123243;27;20564;-89
2022/07/12 12:31:29;;;;;;;1.97;1.77;;;;;;;;;;5112846;27;20509;-89
2022/07/12 12:33:58;;;;;;;1.80;1.70;;;;;;;;;;5122385;27;20930;-89
2022/07/12 12:36:24;;;;;;;4.43;1.70;;;;;;;;;;5114968;28;20419;-90
2022/07/12 12:39:00;;;;;;;2.93;1.60;;;;;;;;;;5118495;27;20583;-88
2022/07/12 12:41:27;;;;;;;2.00;2.00;;;;;;;;;;5113193;28;20526;-88
2022/07/12 12:43:58;;;;;;;1.80;1.70;;;;;;;;;;5119431;27;20850;-88
2022/07/12 12:46:43;;;;;;;1.50;1.50;;;;;;;;;;5113959;28;20815;-90
2022/07/12 12:49:17;;;;;;;1.70;1.70;;;;;;;;;;5093951;28;20463;-88
2022/07/12 12:51:55;;;;;;;1.60;1.60;;;;;;;;;;5113632;28;20423;-89
2022/07/12 12:54:34;;;;;;;1.90;1.83;;;;;;;;;;5136772;27;20451;-88
2022/07/12 12:57:00;;;;;;;1.60;1.60;;;;;;;;;;5107938;27;20459;-89
2022/07/12 12:59:32;;;;;;;1.70;1.50;;;;;;;;;;5134881;27;21059;-89
2022/07/12 13:02:07;;;;;;;1.60;1.60;;;;;;;;;;5091911;28;20972;-88
2022/07/12 13:04:41;;;;;;;1.93;1.93;;;;;;;;;;5111813;27;20461;-89
2022/07/12 13:07:16;;;;;;;3.20;1.70;;;;;;;;;;5108714;28;20425;-90
2022/07/12 13:09:42;;;;;;;2.30;2.30;;;;;;;;;;5115406;27;20534;-88
2022/07/12 13:12:09;;;;;;;1.60;1.60;;;;;;;;;;5117896;28;20427;-91
2022/07/12 13:14:35;;;;;;;2.20;2.00;;;;;;;;;;5129304;27;20460;-89
2022/07/12 13:17:01;;;;;;;2.10;2.10;;;;;;;;;;5122806;27;20518;-89
2022/07/12 13:19:27;;;;;;;2.30;2.20;;;;;;;;;;5106543;28;20440;-89
2022/07/12 13:21:53;;;;;;;3.80;3.60;;;;;;;;;;5111279;28;20438;-91
2022/07/12 13:24:19;;;;;;;1.70;1.70;;;;;;;;;;4742106;27;10000258;-90
2022/07/12 13:26:45;;;;;;;2.07;1.97;;;;;;;;;;5112219;28;20185;-90
2022/07/12 13:29:13;;;;;;;2.90;2.80;;;;;;;;;;5114106;27;20865;-90
2022/07/12 13:31:39;;;;;;;3.33;3.13;;;;;;;;;;5118223;27;20471;-90
2022/07/12 13:34:07;;;;;;;2.33;2.30;;;;;;;;;;5130965;27;20513;-91
2022/07/12 13:36:34;;;;;;;2.53;2.53;;;;;;;;;;5116200;27;20634;-90
2022/07/12 13:40:10;;;;;;;6.73;2.47;;;;;;;;;;5129181;27;20445;-91
2022/07/12 13:41:48;;;;;;;3.03;2.83;;;;;;;;;;5143917;27;20422;-91
2022/07/12 13:44:16;;;;;;;2.17;2.17;;;;;;;;;;5115681;28;20754;-91
2022/07/12 13:46:42;;;;;;;2.60;2.60;;;;;;;;;;5147411;27;20423;-91
2022/07/12 13:49:10;;;;;;;2.60;2.60;;;;;;;;;;5114440;27;20498;-91
2022/07/12 13:54:15;;;;;;;3.00;2.80;;;;;;;;;;5377378;22;20557;-91
2022/07/12 13:56:41;;;;;;;5.30;5.00;;;;;;;;;;5075495;28;20452;-91
2022/07/12 13:59:10;;;;;;;2.73;2.73;;;;;;;;;;5068027;28;20441;-89
2022/07/12 14:01:51;;;;;;;;;;;;;;;;;;;;;
2022/07/12 14:04:18;;;;;;;2.90;2.90;;;;;;;;;;5070326;28;20488;-88
2022/07/12 14:06:46;;;;;;;3.03;3.03;;;;;;;;;;5070897;28;20437;-90
2022/07/12 14:09:24;;;;;;;2.80;2.80;;;;;;;;;;5068535;28;20469;-90
2022/07/12 14:11:59;;;;;;;3.20;3.10;;;;;;;;;;5057302;28;20426;-90
2022/07/12 14:17:16;;;;;;;2.53;2.53;;;;;;;;;;5055416;28;20983;-92
2022/07/12 14:19:51;;;;;;;3.50;3.40;;;;;;;;;;5061985;28;20513;-93
2022/07/12 14:22:24;;;;;;;2.83;2.73;;;;;;;;;;5061704;28;20994;-89
2022/07/12 14:24:53;;;;;;;3.23;3.13;;;;;;;;;;5041972;28;20415;-91
2022/07/12 14:27:21;;;;;;;3.90;3.90;;;;;;;;;;5064678;28;20418;-90
2022/07/12 14:30:08;;;;;;;3.70;3.60;;;;;;;;;;5063966;28;20472;-90
2022/07/12 14:32:39;;;;;;;3.60;3.50;;;;;;;;;;5089871;22;20623;-90
2022/07/12 14:35:07;;;;;;;4.00;4.00;;;;;;;;;;5028524;28;20443;-90
2022/07/12 14:37:33;;;;;;;3.73;3.73;;;;;;;;;;5063118;28;20468;-91
2022/07/12 14:40:02;;;;;;;4.20;4.10;;;;;;;;;;5063754;28;20497;-91
2022/07/12 14:42:29;;;;;;;4.73;4.43;;;;;;;;;;5058872;28;20421;-91
2022/07/12 14:45:16;;;;;;;3.77;3.77;;;;;;;;;;5037638;28;20439;-91
2022/07/12 14:47:48;;;;;;;3.73;3.63;;;;;;;;;;5016907;28;20439;-91
2022/07/12 14:50:20;;;;;;;3.70;3.70;;;;;;;;;;5032939;28;20483;-92
2022/07/12 14:52:46;;;;;;;4.00;3.73;;;;;;;;;;5041636;28;20406;-89
2022/07/12 14:55:31;;;;;;;3.97;3.87;;;;;;;;;;5064316;28;20444;-91
2022/07/12 14:57:58;;;;;;;4.27;4.07;;;;;;;;;;5034639;28;20451;-90
2022/07/12 15:00:50;;;;;;;3.50;3.50;;;;;;;;;;5030780;28;20468;-91
2022/07/12 15:03:29;;;;;;;3.57;3.47;;;;;;;;;;5034946;28;21036;-89
2022/07/12 15:05:56;;;;;;;4.93;4.80;;;;;;;;;;5036278;28;20797;-89